createdAt,value
2023-02-02T00:00:19.667Z,180.52
2023-02-02T00:02:26.676Z,180.30
2023-02-02T00:04:35.258Z,176.55
2023-02-02T00:06:42.388Z,168.32
2023-02-02T00:08:49.672Z,162.82
2023-02-02T00:10:56.817Z,170.50
2023-02-02T00:13:05.366Z,173.48
2023-02-02T00:15:13.522Z,163.63
2023-02-02T00:17:20.395Z,170.30
2023-02-02T00:19:29.011Z,163.15
2023-02-02T00:21:35.847Z,157.88
2023-02-02T00:23:42.964Z,164.70
2023-02-02T00:25:53.918Z,165.27
2023-02-02T00:28:01.326Z,165.57
2023-02-02T00:30:10.914Z,159.52
2023-02-02T00:32:18.909Z,151.40
2023-02-02T00:34:26.556Z,155.48
2023-02-02T00:36:33.868Z,151.68
2023-02-02T00:38:40.915Z,149.25
2023-02-02T00:40:48.306Z,145.02
2023-02-02T00:42:55.380Z,152.32
2023-02-02T00:45:19.193Z,146.27
2023-02-02T00:47:27.870Z,149.73
2023-02-02T00:49:35.167Z,158.65
2023-02-02T00:51:42.282Z,159.65
2023-02-02T00:53:49.622Z,155.55
2023-02-02T00:55:57.876Z,161.00
2023-02-02T00:58:04.902Z,176.82
2023-02-02T01:00:16.029Z,174.65
2023-02-02T01:02:23.753Z,177.45
2023-02-02T01:04:32.681Z,167.82
2023-02-02T01:06:39.978Z,165.10
2023-02-02T01:08:48.218Z,162.43
2023-02-02T01:10:56.287Z,170.40
2023-02-02T01:13:03.210Z,164.02
2023-02-02T01:15:12.544Z,158.35
2023-02-02T01:17:20.372Z,169.73
2023-02-02T01:19:27.222Z,163.70
2023-02-02T01:21:36.033Z,161.95
2023-02-02T01:23:43.317Z,163.82
2023-02-02T01:25:55.775Z,165.00
2023-02-02T01:28:02.599Z,166.75
2023-02-02T01:30:10.496Z,157.60
2023-02-02T01:32:17.572Z,165.32
2023-02-02T01:34:24.585Z,156.90
2023-02-02T01:36:32.143Z,156.07
2023-02-02T01:38:41.169Z,155.07
2023-02-02T01:40:51.623Z,145.75
2023-02-02T01:42:58.581Z,147.55
2023-02-02T01:45:27.406Z,147.88
2023-02-02T01:47:37.748Z,147.90
2023-02-02T01:49:45.678Z,139.65
2023-02-02T01:51:55.111Z,131.07
2023-02-02T01:54:05.944Z,128.00
2023-02-02T01:56:17.683Z,129.10
2023-02-02T02:00:32.812Z,134.40
2023-02-02T02:02:42.021Z,134.20
2023-02-02T02:04:49.157Z,142.35
2023-02-02T02:06:56.681Z,136.68
2023-02-02T02:09:07.529Z,136.30
2023-02-02T02:11:14.761Z,127.65
2023-02-02T02:13:23.633Z,128.70
2023-02-02T02:15:52.575Z,142.75
2023-02-02T02:20:59.365Z,133.70
2023-02-02T02:23:52.629Z,145.07
2023-02-02T02:26:37.636Z,142.40
2023-02-02T02:29:13.253Z,138.82
2023-02-02T02:31:45.408Z,139.68
2023-02-02T02:34:01.450Z,139.70
2023-02-02T02:36:13.958Z,133.48
2023-02-02T02:38:30.256Z,131.30
2023-02-02T02:40:43.845Z,131.30
2023-02-02T02:42:55.027Z,134.73
2023-02-02T02:45:05.776Z,124.53
2023-02-02T02:47:13.725Z,127.82
2023-02-02T02:49:23.113Z,125.97
2023-02-02T02:51:47.561Z,134.05
2023-02-02T02:54:05.479Z,126.93
2023-02-02T02:56:18.182Z,124.85
2023-02-02T02:58:33.927Z,114.05
2023-02-02T03:01:02.206Z,109.70
2023-02-02T03:03:19.571Z,105.32
2023-02-02T03:05:36.938Z,90.97
2023-02-02T03:07:48.842Z,111.75
2023-02-02T03:09:58.115Z,109.88
2023-02-02T03:12:05.345Z,101.80
2023-02-02T03:14:12.371Z,105.85
2023-02-02T03:16:20.531Z,110.63
2023-02-02T03:18:30.836Z,98.32
2023-02-02T03:20:40.065Z,90.30
2023-02-02T03:22:46.991Z,88.60
2023-02-02T03:24:54.576Z,85.80
2023-02-02T03:27:01.758Z,85.90
2023-02-02T03:29:09.097Z,85.28
2023-02-02T03:31:16.976Z,89.65
2023-02-02T03:33:24.840Z,88.07
2023-02-02T03:35:32.227Z,85.05
2023-02-02T03:37:41.301Z,91.60
2023-02-02T03:39:48.430Z,90.55
2023-02-02T03:41:55.409Z,86.88
2023-02-02T03:44:02.694Z,87.00
2023-02-02T03:46:10.205Z,89.25
2023-02-02T03:48:17.302Z,88.28
2023-02-02T03:50:26.188Z,91.25
2023-02-02T03:52:33.159Z,92.13
2023-02-02T03:54:42.138Z,91.70
2023-02-02T03:56:49.067Z,86.03
2023-02-02T03:58:56.276Z,79.35
2023-02-02T04:01:07.112Z,83.78
2023-02-02T04:03:15.421Z,76.35
2023-02-02T04:05:22.466Z,71.40
2023-02-02T04:07:29.837Z,82.72
2023-02-02T04:09:36.795Z,75.72
2023-02-02T04:11:45.885Z,66.47
2023-02-02T04:13:53.072Z,63.75
2023-02-02T04:16:04.474Z,61.22
2023-02-02T04:18:11.526Z,53.50
2023-02-02T04:20:18.810Z,47.17
2023-02-02T04:22:25.683Z,60.38
2023-02-02T04:24:32.968Z,57.28
2023-02-02T04:26:39.914Z,54.95
2023-02-02T04:28:48.867Z,58.85
2023-02-02T04:30:56.357Z,61.97
2023-02-02T04:33:03.536Z,62.15
2023-02-02T04:35:12.007Z,62.72
2023-02-02T04:37:19.439Z,70.72
2023-02-02T04:39:26.312Z,60.90
2023-02-02T04:41:33.687Z,60.45
2023-02-02T04:43:41.549Z,59.85
2023-02-02T04:45:51.301Z,55.67
2023-02-02T04:47:58.163Z,61.55
2023-02-02T04:50:05.244Z,56.13
2023-02-02T04:52:13.548Z,56.47
2023-02-02T04:54:20.782Z,57.38
2023-02-02T04:56:30.151Z,53.17
2023-02-02T04:58:37.095Z,65.38
2023-02-02T05:00:45.356Z,54.45
2023-02-02T05:02:54.064Z,65.35
2023-02-02T05:05:01.245Z,55.35
2023-02-02T05:07:08.175Z,55.63
2023-02-02T05:09:16.117Z,54.80
2023-02-02T05:11:24.890Z,53.53
2023-02-02T05:13:32.995Z,53.40
2023-02-02T05:15:40.121Z,51.22
2023-02-02T05:17:47.356Z,54.88
2023-02-02T05:19:56.538Z,48.85
2023-02-02T05:22:03.873Z,49.28
2023-02-02T05:24:11.257Z,47.15
2023-02-02T05:26:20.633Z,59.80
2023-02-02T05:28:28.070Z,48.70
2023-02-02T05:30:35.556Z,51.10
2023-02-02T05:32:42.648Z,53.38
2023-02-02T05:34:49.923Z,48.88
2023-02-02T05:36:58.649Z,45.65
2023-02-02T05:39:06.955Z,48.45
2023-02-02T05:41:13.931Z,47.78
2023-02-02T05:43:21.683Z,49.17
2023-02-02T05:45:28.766Z,43.90
2023-02-02T05:47:36.964Z,44.58
2023-02-02T05:49:43.925Z,49.78
2023-02-02T05:51:53.681Z,43.72
2023-02-02T05:54:02.857Z,44.83
2023-02-02T05:56:10.501Z,46.63
2023-02-02T05:58:18.397Z,51.78
2023-02-02T06:00:28.140Z,51.33
2023-02-02T06:02:35.016Z,51.53
2023-02-02T06:04:42.662Z,43.95
2023-02-02T06:06:49.485Z,49.67
2023-02-02T06:08:56.824Z,44.22
2023-02-02T06:11:12.956Z,44.38
2023-02-02T06:13:20.496Z,45.08
2023-02-02T06:15:28.580Z,42.83
2023-02-02T06:17:35.783Z,45.47
2023-02-02T06:19:42.655Z,44.70
2023-02-02T06:21:49.891Z,47.28
2023-02-02T06:23:56.825Z,45.80
2023-02-02T06:26:06.201Z,40.88
2023-02-02T06:28:13.079Z,43.33
2023-02-02T06:30:20.597Z,42.78
2023-02-02T06:32:27.447Z,41.40
2023-02-02T06:34:34.719Z,44.13
2023-02-02T06:36:41.750Z,43.05
2023-02-02T06:38:53.331Z,41.20
2023-02-02T06:41:05.526Z,44.38
2023-02-02T06:43:16.092Z,40.15
2023-02-02T06:45:23.974Z,41.13
2023-02-02T06:47:31.063Z,42.40
2023-02-02T06:49:38.208Z,37.92
2023-02-02T06:51:45.081Z,41.40
2023-02-02T06:53:52.767Z,40.10
2023-02-02T06:56:00.152Z,37.45
2023-02-02T06:58:08.973Z,39.40
2023-02-02T07:00:18.539Z,36.25
2023-02-02T07:02:26.764Z,38.00
2023-02-02T07:04:33.746Z,38.80
2023-02-02T07:06:42.469Z,36.13
2023-02-02T07:09:01.004Z,36.63
2023-02-02T07:11:13.390Z,36.42
2023-02-02T07:13:25.049Z,37.53
2023-02-02T07:15:31.966Z,38.35
2023-02-02T07:17:38.954Z,34.35
2023-02-02T07:19:45.876Z,39.88
2023-02-02T07:21:52.861Z,43.63
2023-02-02T07:24:00.806Z,37.67
2023-02-02T07:26:09.265Z,37.28
2023-02-02T07:28:16.297Z,34.42
2023-02-02T07:30:26.471Z,34.90
2023-02-02T07:32:33.989Z,32.20
2023-02-02T07:34:43.370Z,40.45
2023-02-02T07:36:50.483Z,36.78
2023-02-02T07:38:58.450Z,31.67
2023-02-02T07:41:06.046Z,36.75
2023-02-02T07:43:13.425Z,33.13
2023-02-02T07:45:24.547Z,35.10
2023-02-02T07:47:35.818Z,32.67
2023-02-02T07:49:43.063Z,32.95
2023-02-02T07:51:50.651Z,35.35
2023-02-02T07:53:59.715Z,38.55
2023-02-02T07:56:14.236Z,33.15
2023-02-02T07:58:21.822Z,32.22
2023-02-02T08:00:29.555Z,32.92
2023-02-02T08:02:38.576Z,33.67
2023-02-02T08:04:45.523Z,34.38
2023-02-02T08:06:52.445Z,34.05
2023-02-02T08:08:59.734Z,33.35
2023-02-02T08:11:06.794Z,37.15
2023-02-02T08:13:14.657Z,36.85
2023-02-02T08:15:22.268Z,34.67
2023-02-02T08:17:29.171Z,33.28
2023-02-02T08:19:37.839Z,32.08
2023-02-02T08:21:44.746Z,30.55
2023-02-02T08:23:51.893Z,35.42
2023-02-02T08:26:08.290Z,37.08
2023-02-02T08:28:15.474Z,36.60
2023-02-02T08:30:23.089Z,32.60
2023-02-02T08:32:30.094Z,31.48
2023-02-02T08:34:39.116Z,32.05
2023-02-02T08:36:46.606Z,36.95
2023-02-02T08:38:54.147Z,32.28
2023-02-02T08:41:07.783Z,37.75
2023-02-02T08:43:16.505Z,38.13
2023-02-02T08:46:03.434Z,32.85
2023-02-02T08:48:01.995Z,31.08
2023-02-02T08:50:19.924Z,30.63
2023-02-02T08:52:27.162Z,31.20
2023-02-02T08:54:34.196Z,30.85
2023-02-02T08:56:41.365Z,33.05
2023-02-02T08:58:50.074Z,31.50
2023-02-02T09:00:57.331Z,29.58
2023-02-02T09:03:04.192Z,29.75
2023-02-02T09:05:12.144Z,32.50
2023-02-02T09:07:21.282Z,30.63
2023-02-02T09:09:28.859Z,30.67
2023-02-02T09:11:36.249Z,30.73
2023-02-02T09:13:46.563Z,37.85
2023-02-02T09:15:53.602Z,28.65
2023-02-02T09:18:04.041Z,28.42
2023-02-02T09:20:11.885Z,29.52
2023-02-02T09:22:20.511Z,29.48
2023-02-02T09:24:28.687Z,29.08
2023-02-02T09:26:35.604Z,28.85
2023-02-02T09:28:44.099Z,28.52
2023-02-02T09:30:51.892Z,28.85
2023-02-02T09:32:59.062Z,26.40
2023-02-02T09:35:05.928Z,26.25
2023-02-02T09:37:12.908Z,30.58
2023-02-02T09:39:21.640Z,29.42
2023-02-02T09:42:15.774Z,28.38
2023-02-02T09:44:37.134Z,32.55
2023-02-02T09:46:59.319Z,30.38
2023-02-02T09:49:10.701Z,29.08
2023-02-02T09:51:22.442Z,29.35
2023-02-02T09:55:48.381Z,32.40
2023-02-02T09:57:58.944Z,30.92
2023-02-02T10:00:07.596Z,28.13
2023-02-02T10:02:27.277Z,29.30
2023-02-02T10:04:38.653Z,31.88
2023-02-02T10:06:47.525Z,25.77
2023-02-02T10:08:58.393Z,29.10
2023-02-02T10:11:18.328Z,27.95
2023-02-02T10:13:30.214Z,27.35
2023-02-02T10:17:52.856Z,30.13
2023-02-02T10:20:06.148Z,24.75
2023-02-02T10:22:21.298Z,24.25
2023-02-02T10:24:31.214Z,34.13
2023-02-02T10:26:47.125Z,24.55
2023-02-02T10:29:11.993Z,38.85
2023-02-02T10:31:28.357Z,29.63
2023-02-02T10:33:41.203Z,27.30
2023-02-02T10:35:56.873Z,30.60
2023-02-02T10:38:12.515Z,26.15
2023-02-02T10:40:28.187Z,26.17
2023-02-02T10:43:05.636Z,26.70
2023-02-02T10:45:19.087Z,28.08
2023-02-02T10:47:29.929Z,31.42
2023-02-02T10:49:40.353Z,28.65
2023-02-02T10:51:53.204Z,28.38
2023-02-02T10:54:06.274Z,32.95
2023-02-02T10:56:15.404Z,33.95
2023-02-02T10:58:31.134Z,30.67
2023-02-02T11:00:43.391Z,35.88
2023-02-02T11:02:51.591Z,33.38
2023-02-02T11:05:15.242Z,39.05
2023-02-02T11:07:22.848Z,33.33
2023-02-02T11:09:34.537Z,37.53
2023-02-02T11:11:46.287Z,40.20
2023-02-02T11:13:59.195Z,45.63
2023-02-02T11:16:41.598Z,47.30
2023-02-02T11:18:50.375Z,38.60
2023-02-02T11:20:57.451Z,41.35
2023-02-02T11:23:06.461Z,38.10
2023-02-02T11:25:34.208Z,44.83
2023-02-02T11:27:44.182Z,38.47
2023-02-02T11:29:54.947Z,38.60
2023-02-02T11:32:02.334Z,44.95
2023-02-02T11:34:21.324Z,40.55
2023-02-02T11:36:28.383Z,39.05
2023-02-02T11:38:35.944Z,38.88
2023-02-02T11:40:46.064Z,37.33
2023-02-02T11:42:54.233Z,39.97
2023-02-02T11:45:05.393Z,36.88
2023-02-02T11:47:21.226Z,41.08
2023-02-02T11:49:29.371Z,39.20
2023-02-02T11:51:37.072Z,35.92
2023-02-02T11:53:49.962Z,35.95
2023-02-02T11:55:58.246Z,38.10
2023-02-02T11:58:25.759Z,34.58
2023-02-02T12:00:35.684Z,37.28
2023-02-02T12:02:50.565Z,34.50
2023-02-02T12:05:15.683Z,40.05
2023-02-02T12:07:27.317Z,37.47
2023-02-02T12:09:34.217Z,38.85
2023-02-02T12:11:55.953Z,38.45
2023-02-02T12:14:14.724Z,43.78
2023-02-02T12:16:54.461Z,36.03
2023-02-02T12:19:19.603Z,36.17
2023-02-02T12:21:38.051Z,38.47
2023-02-02T12:24:00.172Z,36.72
2023-02-02T12:26:26.966Z,34.45
2023-02-02T12:28:54.361Z,38.10
2023-02-02T12:31:12.560Z,43.15
2023-02-02T12:33:34.037Z,38.20
2023-02-02T12:36:12.809Z,45.30
2023-02-02T12:38:27.511Z,39.78
2023-02-02T12:40:52.618Z,40.80
2023-02-02T12:43:09.831Z,42.78
2023-02-02T12:45:41.823Z,45.55
2023-02-02T12:47:59.984Z,47.95
2023-02-02T12:50:27.136Z,48.67
2023-02-02T12:52:48.854Z,41.85
2023-02-02T12:55:10.499Z,49.60
2023-02-02T12:57:23.955Z,46.33
2023-02-02T12:59:50.490Z,50.67
2023-02-02T13:02:08.165Z,46.50
2023-02-02T13:04:46.277Z,41.00
2023-02-02T13:07:15.218Z,40.63
2023-02-02T13:09:32.779Z,43.58
2023-02-02T13:11:46.836Z,50.83
2023-02-02T13:13:53.847Z,44.88
2023-02-02T13:16:06.739Z,44.42
2023-02-02T13:18:18.126Z,43.33
2023-02-02T13:20:40.173Z,39.17
2023-02-02T13:22:55.101Z,45.88
2023-02-02T13:25:06.048Z,42.42
2023-02-02T13:27:18.560Z,40.42
2023-02-02T13:29:42.659Z,44.22
2023-02-02T13:31:59.979Z,39.40
2023-02-02T13:34:17.177Z,40.67
2023-02-02T13:36:30.823Z,45.75
2023-02-02T13:38:43.279Z,47.47
2023-02-02T13:40:50.874Z,41.95
2023-02-02T13:43:07.319Z,45.25
2023-02-02T13:45:33.199Z,44.35
2023-02-02T13:47:45.132Z,47.65
2023-02-02T13:49:57.023Z,47.40
2023-02-02T13:52:28.219Z,42.35
2023-02-02T13:55:21.389Z,45.33
2023-02-02T13:58:14.543Z,56.95
2023-02-02T14:00:24.690Z,51.78
2023-02-02T14:02:36.478Z,56.78
2023-02-02T14:04:43.815Z,61.42
2023-02-02T14:09:10.160Z,57.13
2023-02-02T14:11:26.255Z,55.88
2023-02-02T14:14:03.192Z,57.80
2023-02-02T14:16:15.130Z,49.22
2023-02-02T14:18:56.880Z,47.47
2023-02-02T14:21:05.063Z,50.53
2023-02-02T14:23:44.260Z,50.25
2023-02-02T14:25:56.560Z,46.47
2023-02-02T14:30:24.978Z,44.33
2023-02-02T14:32:46.921Z,44.53
2023-02-02T14:37:31.238Z,52.67
2023-02-02T14:39:45.899Z,50.80
2023-02-02T14:42:34.912Z,57.75
2023-02-02T14:45:24.777Z,53.17
2023-02-02T14:47:53.424Z,52.33
2023-02-02T14:50:01.426Z,55.60
2023-02-02T14:52:08.577Z,64.72
2023-02-02T14:54:25.349Z,69.07
2023-02-02T14:56:50.756Z,64.63
2023-02-02T14:59:01.126Z,68.60
2023-02-02T15:01:26.686Z,65.65
2023-02-02T15:03:51.841Z,71.90
2023-02-02T15:06:11.164Z,72.47
2023-02-02T15:08:28.580Z,68.32
2023-02-02T15:11:03.311Z,68.50
2023-02-02T15:13:17.044Z,69.95
2023-02-02T15:15:28.843Z,74.90
2023-02-02T15:18:00.721Z,58.50
2023-02-02T15:20:21.919Z,70.80
2023-02-02T15:22:34.844Z,71.78
2023-02-02T15:24:42.295Z,69.03
2023-02-02T15:26:52.708Z,69.72
2023-02-02T15:29:03.152Z,64.85
2023-02-02T15:31:21.403Z,69.25
2023-02-02T15:33:33.669Z,63.30
2023-02-02T15:35:40.987Z,69.82
2023-02-02T15:37:57.731Z,72.25
2023-02-02T15:40:08.777Z,76.78
2023-02-02T15:42:37.313Z,68.35
2023-02-02T15:44:44.450Z,65.57
2023-02-02T15:46:52.059Z,75.85
2023-02-02T15:49:35.041Z,66.88
2023-02-02T15:51:45.871Z,66.43
2023-02-02T15:53:54.380Z,72.50
2023-02-02T15:56:03.204Z,78.15
2023-02-02T15:58:27.386Z,76.88
2023-02-02T16:00:36.992Z,74.40
2023-02-02T16:02:47.440Z,75.65
2023-02-02T16:04:56.251Z,75.35
2023-02-02T16:07:03.244Z,76.93
2023-02-02T16:09:25.912Z,77.57
2023-02-02T16:11:33.014Z,79.40
2023-02-02T16:13:41.254Z,72.45
2023-02-02T16:15:59.139Z,77.03
2023-02-02T16:18:08.880Z,67.45
2023-02-02T16:20:20.588Z,67.63
2023-02-02T16:24:37.121Z,73.93
2023-02-02T16:26:44.353Z,69.95
2023-02-02T16:28:52.863Z,70.68
2023-02-02T16:31:04.055Z,77.63
2023-02-02T16:33:38.735Z,76.13
2023-02-02T16:35:47.294Z,75.55
2023-02-02T16:37:55.181Z,81.50
2023-02-02T16:40:22.857Z,67.93
2023-02-02T16:42:31.456Z,65.07
2023-02-02T16:44:46.533Z,72.57
2023-02-02T16:46:54.072Z,70.45
2023-02-02T16:49:03.138Z,65.43
2023-02-02T16:51:27.790Z,75.45
2023-02-02T16:53:34.975Z,66.90
2023-02-02T16:55:50.420Z,73.18
2023-02-02T16:57:58.039Z,75.32
2023-02-02T17:00:08.617Z,70.40
2023-02-02T17:02:24.918Z,76.85
2023-02-02T17:04:35.807Z,74.18
2023-02-02T17:06:52.419Z,71.63
2023-02-02T17:09:00.947Z,73.75
2023-02-02T17:11:25.995Z,73.03
2023-02-02T17:13:41.860Z,66.25
2023-02-02T17:15:55.721Z,69.90
2023-02-02T17:18:03.099Z,70.22
2023-02-02T17:20:10.188Z,66.60
2023-02-02T17:22:20.477Z,71.50
2023-02-02T17:24:27.541Z,71.90
2023-02-02T17:26:34.799Z,68.28
2023-02-02T17:28:43.355Z,68.45
2023-02-02T17:30:52.567Z,75.40
2023-02-02T17:33:00.547Z,67.13
2023-02-02T17:35:17.038Z,66.15
2023-02-02T17:37:25.650Z,70.05
2023-02-02T17:39:32.883Z,75.18
2023-02-02T17:41:41.294Z,79.25
2023-02-02T17:43:48.713Z,80.15
2023-02-02T17:45:55.755Z,81.60
2023-02-02T17:48:03.042Z,117.35
2023-02-02T17:50:10.585Z,164.52
2023-02-02T17:52:17.766Z,159.25
2023-02-02T17:54:26.328Z,137.30
2023-02-02T17:56:34.637Z,94.72
2023-02-02T17:58:41.566Z,92.10
2023-02-02T18:01:00.022Z,85.10
2023-02-02T18:03:15.831Z,82.57
2023-02-02T18:05:23.383Z,90.25
2023-02-02T18:07:30.468Z,88.15
2023-02-02T18:09:39.464Z,90.28
2023-02-02T18:11:49.279Z,97.88
2023-02-02T18:13:56.536Z,93.47
2023-02-02T18:16:03.424Z,86.38
2023-02-02T18:18:10.692Z,87.43
2023-02-02T18:20:19.984Z,89.22
2023-02-02T18:22:27.439Z,82.25
2023-02-02T18:24:34.313Z,78.60
2023-02-02T18:26:43.140Z,80.65
2023-02-02T18:28:51.341Z,81.13
2023-02-02T18:30:58.715Z,84.15
2023-02-02T18:33:06.139Z,83.38
2023-02-02T18:35:15.187Z,81.20
2023-02-02T18:37:22.271Z,81.13
2023-02-02T18:39:29.248Z,82.18
2023-02-02T18:41:36.531Z,80.28
2023-02-02T18:43:45.666Z,82.20
2023-02-02T18:46:02.046Z,77.63
2023-02-02T18:48:09.440Z,80.93
2023-02-02T18:50:16.419Z,81.43
2023-02-02T18:52:23.752Z,77.68
2023-02-02T18:54:30.678Z,78.63
2023-02-02T18:56:37.964Z,75.07
2023-02-02T18:58:46.792Z,73.13
2023-02-02T19:00:54.516Z,78.30
2023-02-02T19:03:02.169Z,73.85
2023-02-02T19:05:26.569Z,77.93
2023-02-02T19:07:50.431Z,73.90
2023-02-02T19:09:57.711Z,71.70
2023-02-02T19:12:05.761Z,75.82
2023-02-02T19:14:20.333Z,68.97
2023-02-02T19:16:30.596Z,70.20
2023-02-02T19:18:38.120Z,70.43
2023-02-02T19:20:45.958Z,70.28
2023-02-02T19:22:56.654Z,69.20
2023-02-02T19:25:04.626Z,77.53
2023-02-02T19:27:20.979Z,66.05
2023-02-02T19:29:36.699Z,66.05
2023-02-02T19:31:43.716Z,67.25
2023-02-02T19:33:52.293Z,66.85
2023-02-02T19:35:59.167Z,66.10
2023-02-02T19:38:06.859Z,70.72
2023-02-02T19:40:25.788Z,68.35
2023-02-02T19:42:33.053Z,72.40
2023-02-02T19:44:42.996Z,70.13
2023-02-02T19:46:53.465Z,70.65
2023-02-02T19:49:10.582Z,67.85
2023-02-02T19:51:45.132Z,66.25
2023-02-02T19:53:52.386Z,65.15
2023-02-02T19:55:59.252Z,66.28
2023-02-02T19:58:16.107Z,64.25
2023-02-02T20:00:28.908Z,63.22
2023-02-02T20:03:08.276Z,66.03
2023-02-02T20:05:23.603Z,58.35
2023-02-02T20:07:31.787Z,66.53
2023-02-02T20:09:38.662Z,59.55
2023-02-02T20:11:46.902Z,70.18
2023-02-02T20:13:55.073Z,62.55
2023-02-02T20:16:04.606Z,66.68
2023-02-02T20:18:20.034Z,63.30
2023-02-02T20:20:30.187Z,59.92
2023-02-02T20:22:37.521Z,58.25
2023-02-02T20:24:45.461Z,63.00
2023-02-02T20:26:53.323Z,66.82
2023-02-02T20:29:02.084Z,61.40
2023-02-02T20:31:14.446Z,59.55
2023-02-02T20:33:25.817Z,60.30
2023-02-02T20:35:38.699Z,61.60
2023-02-02T20:37:45.816Z,55.42
2023-02-02T20:39:55.261Z,61.65
2023-02-02T20:42:02.123Z,55.63
2023-02-02T20:44:09.139Z,60.22
2023-02-02T20:46:18.159Z,59.08
2023-02-02T20:48:26.738Z,60.20
2023-02-02T20:50:33.613Z,57.67
2023-02-02T20:52:41.256Z,61.22
2023-02-02T20:54:48.346Z,55.50
2023-02-02T20:56:55.518Z,54.20
2023-02-02T20:59:02.442Z,53.08
2023-02-02T21:01:09.875Z,55.65
2023-02-02T21:03:18.547Z,55.50
2023-02-02T21:05:25.830Z,54.35
2023-02-02T21:07:32.862Z,60.83
2023-02-02T21:09:40.449Z,50.22
2023-02-02T21:11:47.583Z,57.65
2023-02-02T21:13:56.299Z,57.17
2023-02-02T21:16:03.171Z,54.05
2023-02-02T21:18:10.286Z,57.67
2023-02-02T21:20:19.282Z,56.78
2023-02-02T21:22:26.613Z,54.65
2023-02-02T21:24:33.449Z,61.33
2023-02-02T21:26:40.518Z,58.58
2023-02-02T21:28:47.695Z,50.15
2023-02-02T21:30:55.267Z,54.30
2023-02-02T21:33:02.828Z,55.70
2023-02-02T21:35:11.156Z,52.35
2023-02-02T21:37:20.723Z,56.65
2023-02-02T21:39:31.132Z,59.53
2023-02-02T21:41:38.160Z,58.08
2023-02-02T21:43:45.501Z,64.88
2023-02-02T21:45:54.292Z,60.38
2023-02-02T21:48:02.621Z,55.03
2023-02-02T21:50:18.929Z,59.97
2023-02-02T21:52:30.104Z,57.92
2023-02-02T21:54:41.100Z,56.72
2023-02-02T21:56:48.182Z,68.68
2023-02-02T21:58:55.118Z,58.47
2023-02-02T22:01:11.013Z,61.70
2023-02-02T22:03:39.996Z,59.05
2023-02-02T22:05:47.127Z,59.88
2023-02-02T22:07:59.738Z,54.55
2023-02-02T22:10:27.982Z,55.10
2023-02-02T22:12:35.809Z,54.35
2023-02-02T22:14:44.014Z,51.08
2023-02-02T22:16:53.504Z,54.33
2023-02-02T22:19:01.349Z,47.00
2023-02-02T22:21:10.473Z,59.28
2023-02-02T22:23:21.757Z,46.10
2023-02-02T22:25:35.333Z,47.27
2023-02-02T22:27:45.508Z,52.63
2023-02-02T22:29:53.024Z,42.15
2023-02-02T22:32:00.317Z,47.65
2023-02-02T22:34:07.217Z,44.65
2023-02-02T22:36:14.365Z,44.85
2023-02-02T22:38:24.464Z,46.88
2023-02-02T22:40:32.327Z,43.10
2023-02-02T22:42:39.237Z,47.85
2023-02-02T22:44:46.524Z,47.08
2023-02-02T22:46:53.396Z,44.90
2023-02-02T22:49:00.585Z,46.03
2023-02-02T22:51:07.453Z,41.17
2023-02-02T22:53:15.197Z,42.17
2023-02-02T22:55:24.998Z,36.83
2023-02-02T22:57:32.376Z,37.92
2023-02-02T22:59:39.356Z,36.88
2023-02-02T23:01:46.153Z,40.35
2023-02-02T23:03:53.362Z,35.13
2023-02-02T23:06:00.681Z,34.90
2023-02-02T23:08:07.506Z,31.33
2023-02-02T23:10:15.667Z,40.50
2023-02-02T23:12:24.439Z,36.38
2023-02-02T23:14:31.623Z,33.80
2023-02-02T23:16:38.498Z,40.08
2023-02-02T23:18:45.625Z,37.35
2023-02-02T23:20:52.502Z,33.88
2023-02-02T23:22:59.766Z,33.38
2023-02-02T23:25:07.168Z,32.00
2023-02-02T23:27:16.080Z,25.15
2023-02-02T23:29:25.785Z,24.45
2023-02-02T23:31:33.103Z,22.50
2023-02-02T23:33:39.939Z,23.13
2023-02-02T23:35:47.107Z,16.63
2023-02-02T23:37:53.946Z,18.00
2023-02-02T23:40:01.180Z,27.02
2023-02-02T23:42:08.167Z,25.67
2023-02-02T23:44:15.294Z,23.48
2023-02-02T23:46:23.995Z,22.70
2023-02-02T23:48:31.645Z,22.65
2023-02-02T23:50:40.869Z,22.52
2023-02-02T23:52:48.261Z,19.27
2023-02-02T23:54:56.057Z,19.65
2023-02-02T23:57:03.757Z,23.70
2023-02-02T23:59:10.613Z,26.20
